»·PEaware :: WWW258 KTNX-KLAS

WWW258 :: KTNX-KLAS

FLIGHT INFORMATION

Flight Status: Arrived
Operator: Unknown
More flights by this operator :: More flights under this callsign
Pilot: Brad M. (22842)
Aircraft: BOEING 737-600
(B736)
More flights by this aircraft type
Origin: KTNX Tonopah Test Range
United States
Destination: KLAS McCarran Intl
United States
More flights between these airports :: More routes between these airports
Route: +RANGE2 TPH KICHI LEAHI ESSAA CENIT JAYSN FIDOE KEPEC KEPEC6
File this flight plan on PilotEdge
Remarks:
Altitude:
(Current/Filed)
35,000ft
Speed:
(Current/Filed)
457kts
Departed: 06-Feb-20 05:08 PM
Arrived: 06-Feb-20 06:42 PM
Distance/Time
Traveled:
128nm/1:34
Distance/Time
To Go:
Arrived

Flight Plot

Page will automatically refresh every two minutes.


Map Options




Map Legend


Flown Route
Filed Route
Departure Airport
Arrival Airport
Navaid (VOR, NDB)
Fix

Horizontal Profiles

Position Reports

Time Latitude Longitude Heading Altitude Ground
Speed
06-Feb-20 17:06 36.874686 -116.129569 344 20002ft 334kts
06-Feb-20 17:07 36.958833 -116.176409 328 20007ft 333kts
06-Feb-20 17:08 37.036900 -116.238485 327 20016ft 329kts
06-Feb-20 17:09 37.111791 -116.299452 327 19934ft 318kts
06-Feb-20 17:10 37.185417 -116.359719 327 18294ft 311kts
06-Feb-20 17:11 37.257207 -116.418090 327 16262ft 306kts
06-Feb-20 17:12 37.327430 -116.475554 327 14356ft 296kts
06-Feb-20 17:13 37.395213 -116.531483 327 12488ft 286kts
06-Feb-20 17:14 37.460955 -116.585852 327 10623ft 279kts
06-Feb-20 17:15 37.520783 -116.633888 334 10332ft 243kts
06-Feb-20 17:16 37.585166 -116.668005 338 8748ft 247kts
06-Feb-20 17:17 37.647988 -116.694049 341 7674ft 226kts
06-Feb-20 17:18 37.697014 -116.719987 334 7155ft 170kts
06-Feb-20 17:20 37.735351 -116.743753 335 6417ft 144kts
06-Feb-20 17:21 37.772762 -116.765847 335 5730ft 149kts
06-Feb-20 17:22 37.792472 -116.777039 50 5557ft 11kts
06-Feb-20 17:23 37.793104 -116.775215 65 5557ft 3kts
06-Feb-20 17:24 37.793147 -116.773512 156 5557ft 11kts
06-Feb-20 17:25 37.789207 -116.771228 155 5557ft 17kts
06-Feb-20 17:26 37.785367 -116.768983 155 5557ft 14kts
06-Feb-20 17:27 37.781673 -116.766846 155 5557ft 0kts
06-Feb-20 17:28 37.781037 -116.764994 152 5557ft 8kts
06-Feb-20 17:29 37.780898 -116.764327 66 5557ft 0kts
06-Feb-20 17:30 37.780898 -116.764327 66 5557ft 0kts
06-Feb-20 17:31 37.780898 -116.764327 66 5557ft 0kts
06-Feb-20 17:32 37.780898 -116.764327 66 5557ft 0kts
06-Feb-20 17:33 37.780898 -116.764327 66 5557ft 0kts
06-Feb-20 17:34 37.780898 -116.764327 66 5557ft 0kts
06-Feb-20 17:35 37.780898 -116.764327 66 5557ft 0kts
06-Feb-20 17:35 37.780898 -116.764327 66 5557ft 0kts
06-Feb-20 17:37 37.780898 -116.764327 66 5557ft 0kts
06-Feb-20 17:38 37.780898 -116.764327 66 5557ft 0kts
06-Feb-20 17:38 37.780898 -116.764327 66 5557ft 0kts
06-Feb-20 17:40 37.780898 -116.764327 66 5557ft 0kts
06-Feb-20 17:41 37.780898 -116.764327 66 5557ft 0kts
06-Feb-20 17:41 37.780898 -116.764327 66 5557ft 0kts
06-Feb-20 17:43 37.780898 -116.764327 66 5557ft 0kts
06-Feb-20 17:43 37.780898 -116.764327 66 5557ft 0kts
06-Feb-20 17:44 37.780898 -116.764327 66 5557ft 0kts
06-Feb-20 17:45 37.780898 -116.764327 66 5557ft 0kts
06-Feb-20 17:46 37.780898 -116.764327 66 5557ft 0kts
06-Feb-20 17:47 37.780898 -116.764327 66 5557ft 0kts
06-Feb-20 17:48 37.780898 -116.764327 66 5557ft 0kts
06-Feb-20 17:49 37.780898 -116.764327 66 5557ft 0kts
06-Feb-20 17:50 37.780898 -116.764327 66 5557ft 0kts
06-Feb-20 17:51 37.780898 -116.764327 66 5557ft 0kts
06-Feb-20 17:52 37.780898 -116.764327 66 5557ft 0kts
06-Feb-20 17:53 37.780898 -116.764327 66 5557ft 0kts
06-Feb-20 17:54 37.780898 -116.764327 66 5557ft 0kts
06-Feb-20 17:55 37.780898 -116.764327 66 5557ft 0kts
06-Feb-20 17:56 37.780898 -116.764327 66 5557ft 0kts
06-Feb-20 17:57 37.780898 -116.764327 66 5557ft 0kts
06-Feb-20 17:58 37.780898 -116.764327 66 5557ft 0kts
06-Feb-20 17:59 37.780898 -116.764327 66 5557ft 0kts
06-Feb-20 18:00 37.781830 -116.764813 247 5557ft 0kts
06-Feb-20 18:01 37.781300 -116.766327 245 5557ft 6kts
06-Feb-20 18:02 37.780578 -116.768347 247 5557ft 5kts
06-Feb-20 18:03 37.780371 -116.768948 246 5557ft 0kts
06-Feb-20 18:04 37.780371 -116.768949 246 5557ft 0kts
06-Feb-20 18:05 37.780433 -116.770313 335 5557ft 12kts
06-Feb-20 18:06 37.806256 -116.786326 330 6233ft 144kts
06-Feb-20 18:07 37.842913 -116.821787 319 7897ft 186kts
06-Feb-20 18:08 37.887179 -116.871335 319 9529ft 244kts
06-Feb-20 18:09 37.946317 -116.938061 318 10079ft 328kts
06-Feb-20 18:10 38.013059 -117.017986 304 13808ft 333kts
06-Feb-20 18:11 37.999850 -117.134257 231 17035ft 390kts
06-Feb-20 18:12 37.893616 -117.187085 200 19132ft 431kts
06-Feb-20 18:13 37.766649 -117.210700 189 19273ft 479kts
06-Feb-20 18:14 37.632895 -117.228679 190 21326ft 490kts
06-Feb-20 18:15 37.496153 -117.240734 176 23115ft 501kts
06-Feb-20 18:16 37.370823 -117.166054 146 23159ft 506kts
06-Feb-20 18:17 37.251731 -117.072198 149 23133ft 506kts
06-Feb-20 18:18 37.131407 -116.980987 149 23123ft 505kts
06-Feb-20 18:19 37.020148 -116.874482 133 23113ft 504kts
06-Feb-20 18:20 36.923173 -116.747549 133 23102ft 504kts
06-Feb-20 18:21 36.825792 -116.622134 133 23092ft 504kts
06-Feb-20 18:22 36.727517 -116.497234 133 23085ft 504kts
06-Feb-20 18:23 36.657317 -116.349881 104 23074ft 494kts
06-Feb-20 18:24 36.614335 -116.186895 105 23068ft 494kts
06-Feb-20 18:25 36.545782 -116.040431 137 23060ft 503kts
06-Feb-20 18:26 36.429931 -115.942004 146 23061ft 504kts
06-Feb-20 18:27 36.313488 -115.845893 146 22604ft 498kts
06-Feb-20 18:28 36.199601 -115.751475 146 19062ft 483kts
06-Feb-20 18:29 36.099745 -115.647684 132 16391ft 451kts
06-Feb-20 18:30 36.014524 -115.538858 132 13660ft 426kts
06-Feb-20 18:31 35.937316 -115.440741 132 12366ft 375kts
06-Feb-20 18:32 35.925539 -115.328715 50 11126ft 344kts
06-Feb-20 18:33 36.000878 -115.272487 22 9668ft 298kts
06-Feb-20 18:34 36.070971 -115.231688 21 8012ft 272kts
06-Feb-20 18:35 36.139331 -115.193622 21 6065ft 261kts
06-Feb-20 18:36 36.200842 -115.160167 21 4996ft 233kts
06-Feb-20 18:37 36.226467 -115.110627 137 4122ft 211kts
06-Feb-20 18:38 36.177003 -115.112670 202 3710ft 177kts
06-Feb-20 18:39 36.137202 -115.143169 207 3078ft 143kts
06-Feb-20 18:40 36.099369 -115.156717 201 2241ft 143kts
06-Feb-20 18:41 36.084074 -115.166188 229 2189ft 16kts
06-Feb-20 18:42 36.085670 -115.165935 25 2189ft 15kts
06-Feb-20 18:43 36.089345 -115.163931 354 2189ft 10kts
06-Feb-20 18:44 36.090705 -115.165205 313 2189ft 4kts
06-Feb-20 18:45 36.091063 -115.164798 73 2189ft 0kts

Navigation Log

Ident Type
Flight plan parsing failed, navigation log unavailable